Time;durP1;ratioP1;P1;durP2;ratioP2;P2;SDS_P1;SDS_P2;PMS_P1;PMS_P2;Temp;Humidity;BMP_temperature;BMP_pressure;BME280_temperature;BME280_humidity;BME280_pressure;Samples;Min_cycle;Max_cycle;Signal;HPM_P1;HPM_P2
2023/07/13 18:24:46;;;;;;;11.30;2.13;;;;;;;19.55;100.00;101430.34;5038111;22;1307570;-71
2023/07/13 18:27:12;;;;;;;12.45;2.40;;;;;;;19.70;100.00;101438.06;5035675;28;20041;-72
2023/07/13 18:29:37;;;;;;;5.47;2.03;;;;;;;19.80;100.00;101436.91;5159733;23;20577;-76
2023/07/13 18:34:42;;;;;;;7.38;2.30;;;;;;;19.66;100.00;101434.75;5995230;22;20446;-75
2023/07/13 18:37:19;;;;;;;5.13;2.25;;;;;;;19.65;100.00;101442.19;5074998;28;20035;-76
2023/07/13 18:39:46;;;;;;;6.68;2.47;;;;;;;19.73;100.00;101433.03;5080051;28;20035;-78
2023/07/13 18:42:11;;;;;;;5.28;2.25;;;;;;;19.66;100.00;101434.75;5077386;28;20035;-76
2023/07/13 18:44:37;;;;;;;6.90;2.47;;;;;;;19.63;100.00;101432.31;5093787;28;20042;-76
2023/07/13 18:47:04;;;;;;;5.22;2.28;;;;;;;19.42;100.00;101435.50;5090484;28;20035;-77
2023/07/13 18:49:29;;;;;;;8.65;2.88;;;;;;;19.51;100.00;101439.19;5060481;28;20039;-76
2023/07/13 18:51:55;;;;;;;7.60;3.10;;;;;;;19.34;100.00;101439.09;5074865;27;20415;-75
2023/07/13 18:54:22;;;;;;;5.55;2.83;;;;;;;19.45;100.00;101436.03;5112077;27;20036;-77
2023/07/13 18:56:48;;;;;;;5.55;2.95;;;;;;;19.31;100.00;101439.41;5065775;28;20035;-76
2023/07/13 18:59:14;;;;;;;7.28;3.20;;;;;;;19.39;100.00;101441.38;5077939;28;20042;-75
2023/07/13 19:01:40;;;;;;;6.80;2.75;;;;;;;19.24;100.00;101443.91;5079492;28;20149;-76
2023/07/13 19:04:25;;;;;;;5.20;2.45;;;;;;;19.43;100.00;101448.34;5093884;28;20122;-76
2023/07/13 19:06:51;;;;;;;5.65;2.55;;;;;;;19.36;100.00;101441.72;5077185;28;20462;-77
2023/07/13 19:09:16;;;;;;;6.15;2.45;;;;;;;19.25;100.00;101440.06;5046634;28;20061;-75
2023/07/13 19:11:42;;;;;;;4.80;2.42;;;;;;;19.36;100.00;101441.72;5049918;28;20122;-76
2023/07/13 19:14:11;;;;;;;3.67;2.20;;;;;;;19.38;100.00;101442.41;5082742;28;20051;-76
2023/07/13 19:16:38;;;;;;;6.45;2.90;;;;;;;19.19;100.00;101446.31;5124180;27;20027;-75
2023/07/13 19:19:13;;;;;;;5.50;2.40;;;;;;;19.16;100.00;101444.72;5058555;28;20492;-76
2023/07/13 19:22:01;;;;;;;3.72;2.10;;;;;;;19.04;100.00;101443.25;5103370;28;20069;-75
2023/07/13 19:24:48;;;;;;;6.32;2.58;;;;;;;18.94;100.00;101448.91;5074123;27;20046;-75
2023/07/13 19:27:34;;;;;;;5.30;2.28;;;;;;;18.96;100.00;101446.84;5101635;28;20114;-75
2023/07/13 19:30:19;;;;;;;5.57;2.63;;;;;;;19.09;100.00;101450.03;5090973;28;20039;-75
2023/07/13 19:33:06;;;;;;;10.73;3.30;;;;;;;18.99;100.00;101449.28;5105189;28;20051;-76
2023/07/13 19:35:52;;;;;;;7.72;2.47;;;;;;;19.09;100.00;101446.41;5125398;27;20044;-74
2023/07/13 19:38:38;;;;;;;9.00;2.67;;;;;;;19.00;100.00;101447.38;5118952;27;20035;-75
2023/07/13 19:41:27;;;;;;;5.47;2.33;;;;;;;18.98;100.00;101450.31;5112083;27;20043;-75
2023/07/13 19:44:13;;;;;;;7.55;2.78;;;;;;;19.10;100.00;101450.91;5132496;27;20035;-75
2023/07/13 19:46:59;;;;;;;6.53;2.90;;;;;;;18.98;100.00;101449.44;5115295;27;20039;-75
2023/07/13 19:49:45;;;;;;;4.72;2.63;;;;;;;18.98;100.00;101446.66;5106189;27;20046;-74
2023/07/13 19:52:31;;;;;;;3.30;2.22;;;;;;;18.85;100.00;101455.41;5110101;27;20413;-75
2023/07/13 19:55:21;;;;;;;5.80;2.70;;;;;;;18.81;100.00;101465.06;5089453;28;20112;-74
2023/07/13 19:58:09;;;;;;;5.07;2.53;;;;;;;18.94;100.00;101461.91;5116645;27;20035;-74
2023/07/13 20:00:56;;;;;;;6.10;2.97;;;;;;;18.75;100.00;101455.47;5119992;27;20080;-75
2023/07/13 20:03:41;;;;;;;5.97;2.85;;;;;;;18.73;100.00;101466.72;5125469;27;20039;-77
2023/07/13 20:06:33;;;;;;;7.32;3.20;;;;;;;18.74;100.00;101465.72;5087121;27;20121;-76
2023/07/13 20:09:24;;;;;;;8.77;3.50;;;;;;;18.70;100.00;101464.28;5124676;27;20039;-75
2023/07/13 20:12:13;;;;;;;4.07;2.80;;;;;;;18.63;100.00;101465.97;5120300;27;20046;-76
2023/07/13 20:14:59;;;;;;;6.22;2.85;;;;;;;18.62;100.00;101457.78;5107047;27;20030;-76
2023/07/13 20:17:58;;;;;;;4.85;2.83;;;;;;;18.58;100.00;101467.44;5112087;27;20099;-74
2023/07/13 20:20:48;;;;;;;8.48;3.20;;;;;;;18.42;100.00;101462.63;5113891;27;20032;-74
2023/07/13 20:23:34;;;;;;;6.38;2.90;;;;;;;18.27;100.00;101467.84;5121557;27;20081;-76
2023/07/13 20:26:21;;;;;;;5.03;2.75;;;;;;;18.19;100.00;101469.50;5133842;27;20047;-74
2023/07/13 20:29:07;;;;;;;4.97;3.10;;;;;;;17.87;100.00;101472.75;5129948;27;20040;-74
2023/07/13 20:31:53;;;;;;;3.85;2.70;;;;;;;17.89;100.00;101472.59;5120755;27;20036;-75
2023/07/13 20:34:40;;;;;;;6.15;3.50;;;;;;;17.68;100.00;101470.94;5098414;27;20044;-75
2023/07/13 20:37:36;;;;;;;5.05;3.30;;;;;;;17.63;100.00;101470.53;5094235;28;20257;-73
2023/07/13 20:40:23;;;;;;;5.47;3.50;;;;;;;17.61;100.00;101476.22;5110247;27;20031;-72
2023/07/13 20:43:10;;;;;;;6.78;4.03;;;;;;;17.70;100.00;101473.56;5114676;27;20091;-73
2023/07/13 20:45:58;;;;;;;8.52;3.72;;;;;;;17.76;100.00;101473.81;5124182;27;20042;-74
2023/07/13 20:48:50;;;;;;;7.30;3.55;;;;;;;17.68;100.00;101473.69;5139534;27;20027;-73
2023/07/13 20:51:36;;;;;;;6.25;3.85;;;;;;;17.51;100.00;101472.63;5141461;27;20035;-74
2023/07/13 20:54:22;;;;;;;9.98;4.30;;;;;;;17.63;100.00;101474.16;5130415;27;20039;-74
2023/07/13 20:57:09;;;;;;;10.10;4.80;;;;;;;17.58;100.00;101472.88;5122995;27;20039;-74
2023/07/13 20:59:55;;;;;;;9.23;4.72;;;;;;;17.68;100.00;101470.06;5124896;27;20094;-74
2023/07/13 21:02:42;;;;;;;9.77;4.88;;;;;;;17.52;100.00;101473.47;5116136;28;20058;-74
2023/07/13 21:05:37;;;;;;;7.70;4.57;;;;;;;17.54;100.00;101466.75;5115813;27;20050;-72
2023/07/13 21:08:24;;;;;;;15.80;6.25;;;;;;;17.43;100.00;101475.25;5137262;27;20035;-73
2023/07/13 21:11:09;;;;;;;9.95;5.35;;;;;;;17.38;100.00;101461.88;5117926;27;20043;-73
2023/07/13 21:13:55;;;;;;;7.60;4.47;;;;;;;17.16;100.00;101467.78;5111878;27;20031;-74
2023/07/13 21:16:41;;;;;;;9.73;5.20;;;;;;;17.17;100.00;101464.00;5110896;27;20028;-74
2023/07/13 21:19:28;;;;;;;8.93;5.30;;;;;;;17.21;100.00;101466.28;5122777;27;20104;-74
2023/07/13 21:22:15;;;;;;;8.52;5.50;;;;;;;17.20;100.00;101471.97;5136214;27;20049;-73
2023/07/13 21:25:04;;;;;;;13.10;5.55;;;;;;;17.21;100.00;101468.19;5107498;27;20051;-73
2023/07/13 21:27:56;;;;;;;10.73;5.25;;;;;;;17.32;100.00;101475.44;5120358;27;20032;-73
2023/07/13 21:30:43;;;;;;;9.63;5.20;;;;;;;17.20;100.00;101481.16;5140696;27;20027;-73
2023/07/13 21:33:30;;;;;;;8.63;5.30;;;;;;;17.34;100.00;101482.56;5126299;27;20043;-73
2023/07/13 21:36:15;;;;;;;9.95;4.78;;;;;;;17.43;100.00;101489.09;5119689;27;20115;-73
2023/07/13 21:39:04;;;;;;;7.88;4.63;;;;;;;17.64;100.00;101481.44;5127985;27;20031;-73
2023/07/13 21:41:50;;;;;;;9.40;5.53;;;;;;;17.75;100.00;101474.81;5139198;27;20547;-73
2023/07/13 21:44:36;;;;;;;6.90;5.10;;;;;;;17.76;100.00;101486.81;5134737;27;20073;-73
2023/07/13 21:47:21;;;;;;;10.88;5.07;;;;;;;17.72;100.00;101483.44;5129839;27;20044;-73
2023/07/13 21:50:08;;;;;;;9.32;5.55;;;;;;;17.47;100.00;101475.84;5099184;28;20072;-74
2023/07/13 21:52:54;;;;;;;12.18;5.63;;;;;;;17.56;100.00;101480.44;5112372;27;20043;-74
2023/07/13 21:55:39;;;;;;;10.05;5.47;;;;;;;17.48;100.00;101480.34;5114781;27;20032;-73
2023/07/13 21:58:31;;;;;;;9.38;5.00;;;;;;;17.53;100.00;101487.19;5123049;28;20044;-73
2023/07/13 22:01:23;;;;;;;7.18;5.00;;;;;;;17.50;100.00;101494.91;5136341;27;20054;-73
2023/07/13 22:04:13;;;;;;;7.97;5.07;;;;;;;17.53;100.00;101492.72;5136980;28;20042;-73
2023/07/13 22:06:59;;;;;;;8.32;6.30;;;;;;;17.49;100.00;101482.09;5124333;28;20035;-73
2023/07/13 22:09:45;;;;;;;10.98;6.97;;;;;;;17.54;100.00;101483.38;5125617;28;20042;-73
2023/07/13 22:12:31;;;;;;;10.07;6.75;;;;;;;17.70;100.00;101490.16;5120659;28;20051;-74
2023/07/13 22:15:35;;;;;;;9.40;6.35;;;;;;;17.79;100.00;101484.59;5100883;28;20080;-73
2023/07/13 22:18:22;;;;;;;12.05;6.80;;;;;;;17.81;100.00;101481.66;5126221;28;20095;-73
2023/07/13 22:21:11;;;;;;;7.38;5.80;;;;;;;17.87;100.00;101488.47;5145973;28;20030;-73
2023/07/13 22:23:57;;;;;;;12.23;7.07;;;;;;;17.68;100.00;101501.41;5142529;28;20027;-73
2023/07/13 22:26:43;;;;;;;12.05;7.35;;;;;;;17.58;100.00;101519.97;5137727;28;20040;-73
2023/07/13 22:29:32;;;;;;;14.23;8.07;;;;;;;17.53;100.00;101522.28;5147550;27;20039;-73
2023/07/13 22:32:18;;;;;;;16.85;8.98;;;;;;;17.37;100.00;101515.50;5131479;27;20066;-73
2023/07/13 22:35:06;;;;;;;17.85;9.18;;;;;;;17.35;100.00;101508.34;5118969;28;20071;-73
2023/07/13 22:37:55;;;;;;;20.15;10.52;;;;;;;17.32;100.00;101489.28;5121434;27;20035;-73
2023/07/13 22:40:41;;;;;;;16.38;10.07;;;;;;;17.17;100.00;101497.19;5139376;27;20060;-74
2023/07/13 22:43:27;;;;;;;18.15;11.30;;;;;;;17.08;100.00;101516.41;5123694;27;20100;-74
2023/07/13 22:46:29;;;;;;;17.70;10.98;;;;;;;16.95;100.00;101507.56;5134413;27;20541;-73
2023/07/13 22:49:25;;;;;;;15.88;11.82;;;;;;;16.90;100.00;101510.78;5134850;27;20044;-74
2023/07/13 22:52:12;;;;;;;17.55;11.68;;;;;;;16.72;100.00;101509.72;5131597;27;20043;-73
2023/07/13 22:54:58;;;;;;;23.75;11.57;;;;;;;16.88;100.00;101500.88;5137886;27;20057;-73
2023/07/13 22:57:47;;;;;;;18.85;12.35;;;;;;;16.92;100.00;101512.50;5129048;27;20035;-73
2023/07/13 23:00:33;;;;;;;23.10;11.80;;;;;;;16.72;100.00;101506.94;5099039;27;20038;-74
2023/07/13 23:03:19;;;;;;;22.50;12.25;;;;;;;16.82;100.00;101509.72;5121843;27;20039;-74
2023/07/13 23:06:05;;;;;;;22.17;13.82;;;;;;;16.81;100.00;101508.84;5125258;27;20028;-74
2023/07/13 23:08:50;;;;;;;16.90;12.15;;;;;;;16.73;100.00;101498.50;5112661;27;20039;-74
2023/07/13 23:11:36;;;;;;;16.88;12.07;;;;;;;16.75;100.00;101498.38;5114504;27;20043;-73
2023/07/13 23:14:26;;;;;;;20.83;12.70;;;;;;;16.89;100.00;101491.56;5115711;27;20032;-73
2023/07/13 23:17:12;;;;;;;22.13;12.93;;;;;;;16.94;100.00;101502.16;5116786;27;20039;-72
2023/07/13 23:19:57;;;;;;;21.35;13.10;;;;;;;16.89;100.00;101499.88;5120556;27;20046;-73
2023/07/13 23:22:43;;;;;;;22.63;12.68;;;;;;;16.84;100.00;101491.97;5107552;27;20074;-74
2023/07/13 23:25:34;;;;;;;18.55;13.07;;;;;;;16.81;100.00;101489.50;5101707;27;20048;-72
2023/07/13 23:28:20;;;;;;;21.05;13.43;;;;;;;16.70;100.00;101489.63;5104990;27;20039;-73
2023/07/13 23:31:10;;;;;;;18.73;12.98;;;;;;;16.59;100.00;101490.66;5098189;27;20081;-74
2023/07/13 23:33:59;;;;;;;23.98;14.65;;;;;;;16.58;100.00;101496.31;5128388;27;20035;-72
2023/07/13 23:36:45;;;;;;;20.30;13.15;;;;;;;16.57;100.00;101486.28;5121910;27;20111;-71
2023/07/13 23:39:31;;;;;;;17.55;12.55;;;;;;;16.48;100.00;101479.75;5116637;27;20226;-72
2023/07/13 23:42:16;;;;;;;24.38;13.80;;;;;;;16.48;100.00;101490.81;5105809;27;20046;-72
2023/07/13 23:45:02;;;;;;;20.77;13.25;;;;;;;16.34;100.00;101481.91;5107196;27;20060;-74
2023/07/13 23:47:51;;;;;;;22.23;14.23;;;;;;;16.35;100.00;101486.44;5121790;27;20132;-72
2023/07/13 23:50:37;;;;;;;21.27;14.55;;;;;;;16.38;100.00;101478.84;5111163;27;20039;-71
2023/07/13 23:53:23;;;;;;;23.67;15.15;;;;;;;16.32;100.00;101480.31;5124527;27;20059;-72
2023/07/13 23:56:21;;;;;;;24.60;15.18;;;;;;;16.38;100.00;101476.09;5101599;27;20027;-72
2023/07/13 23:59:07;;;;;;;27.42;15.57;;;;;;;16.27;100.00;101472.44;5106958;27;20126;-73
